Jepson Prairie Reserve, California Weather observations

Data are for 10 minute period ending at time listed.
 Day   Time   Solar   Ave.   Ave.  Ave.  Vector  Max.   Baro.   Total    
  of    of     Rad.   Air    Rel.  Wind   Wind   Wind  Press.  Precip.   
Year   Day            Temp.  Hum.  Speed  Dir.   Gust                    
2015   (PST)  Kw/m2    F      %     mph   deg.    mph    mb.     in.     
-------------------------------------------------------------------------
  31    1:10   0.00   59.1    40   19.6   330    24.1   1010.5    0.00 
  31    1:20   0.00   59.1    39   19.7   331    25.6   1010.8    0.00 
  31    1:30   0.00   58.8    39   17.8   331    22.8   1010.8    0.00 
  31    1:40   0.00   58.6    38   18.9   325    24.5   1010.8    0.00 
  31    1:50   0.00   58.6    38   18.0   326    22.9   1010.8    0.00 
  31    2:00   0.00   58.3    38   18.5   326    22.6   1010.8    0.00 
  31    2:10   0.00   57.6    39   18.2   324    22.1   1010.8    0.00 
  31    2:20   0.00   57.0    40   18.2   326    22.7   1010.8    0.00 
  31    2:30   0.00   56.6    41   19.8   325    24.5   1010.5    0.00 
  31    2:40   0.00   56.3    42   20.7   327    27.0   1010.8    0.00 
  31    2:50   0.00   56.1    42   19.2   329    23.8   1010.8    0.00 
  31    3:00   0.00   55.8    42   16.9   333    22.1   1010.8    0.00 
  31    3:10   0.00   55.3    44   15.1   330    20.7   1010.5    0.00 
  31    3:20   0.00   54.7    44   15.0   331    20.5   1010.5    0.00 
  31    3:30   0.00   54.6    44   15.2   327    19.8   1010.5    0.00 
  31    3:40   0.00   54.4    44   13.8   324    17.1   1010.8    0.00 
  31    3:50   0.00   54.2    43   12.0   322    16.3   1010.8    0.00 
  31    4:00   0.00   53.7    43    9.9   318    13.1   1010.8    0.00 
  31    4:10   0.00   53.0    45    8.2   313    10.2   1010.8    0.00 
  31    4:20   0.00   53.4    43    7.6   315    10.7   1010.8    0.00 
  31    4:30   0.00   53.5    45    6.7   336     8.5   1010.8    0.00 
  31    4:40   0.00   54.2    42    8.3   339    10.7   1010.8    0.00 
  31    4:50   0.00   54.0    44    8.5   337    10.2   1011.2    0.00 
  31    5:00   0.00   54.2    42    9.9   341    11.9   1011.2    0.00 
  31    5:10   0.00   54.2    42    9.8   340    12.0   1011.2    0.00 
  31    5:20   0.00   54.1    42    8.6   343    10.7   1011.2    0.00 
  31    5:30   0.00   54.1    42    9.8   344    14.8   1011.2    0.00 
  31    5:40   0.00   54.8    39   11.9   340    20.0   1011.2    0.00 
  31    5:50   0.00   55.9    37   17.4   331    24.3   1011.2    0.00 
  31    6:00   0.00   56.0    37   16.5   333    22.2   1011.5    0.00 
  31    6:10   0.00   55.7    37   14.8   336    21.0   1011.5    0.00 
  31    6:20   0.00   54.6    40   13.5   335    17.0   1011.9    0.00 
  31    6:30   0.00   54.7    38   13.0   334    17.5   1012.2    0.00 
  31    6:40   0.00   55.3    37   13.6   333    18.0   1012.2    0.00 
  31    6:50   0.00   55.6    36   12.6   343    15.3   1012.2    0.00 
  31    7:00   0.00   55.9    35   13.2   341    18.6   1012.2    0.00 
  31    7:10   0.00   55.7    36   18.0   332    23.9   1012.2    0.00 
  31    7:20   0.01   55.9    35   17.9   328    22.9   1012.2    0.00 
  31    7:30   0.02   56.1    35   20.0   327    26.2   1012.2    0.00 
  31    7:40   0.05   56.7    34   22.2   323    29.5   1012.2    0.00 
  31    7:50   0.07   57.5    32   24.7   324    33.5   1012.2    0.00 
  31    8:00   0.10   57.4    34   23.1   327    33.7   1012.5    0.00 
  31    8:10   0.13   57.3    34   23.0   328    30.7   1012.5    0.00 
  31    8:20   0.16   57.7    34   23.9   328    29.5   1012.5    0.00 
  31    8:30   0.18   57.9    34   23.9   328    29.3   1012.9    0.00 
  31    8:40   0.21   58.1    34   22.9   329    27.5   1012.9    0.00 
  31    8:50   0.24   58.3    34   20.6   328    26.5   1013.2    0.00 
  31    9:00   0.26   59.0    33   21.0   324    26.8   1013.2    0.00 
  31    9:10   0.29   59.4    33   21.3   325    26.3   1013.2    0.00 
  31    9:20   0.31   60.1    32   20.8   326    29.9   1013.2    0.00 
  31    9:30   0.34   60.8    32   22.5   327    32.4   1013.2    0.00 
  31    9:40   0.36   61.4    31   23.8   325    30.5   1013.2    0.00 
  31    9:50   0.38   62.1    31   21.9   329    27.6   1013.2    0.00 
  31   10:00   0.40   62.7    30   24.8   328    32.7   1013.2    0.00 
  31   10:10   0.42   63.2    30   23.2   331    30.8   1013.2    0.00 
  31   10:20   0.44   63.6    30   24.3   332    31.0   1013.2    0.00 
  31   10:30   0.46   64.1    30   25.9   333    33.6   1013.2    0.00 
  31   10:40   0.48   64.3    30   24.9   338    32.7   1013.5    0.00 
  31   10:50   0.49   64.5    30   24.2   342    31.0   1013.5    0.00 
  31   11:00   0.51   65.1    28   24.5   342    30.7   1013.2    0.00 
  31   11:10   0.52   65.6    28   24.9   341    31.8   1013.2    0.00 
  31   11:20   0.53   65.9    29   23.5   336    29.6   1013.2    0.00 
  31   11:30   0.54   66.4    29   24.3   331    30.9   1013.2    0.00 
  31   11:40   0.55   66.9    27   24.6   330    31.0   1012.9    0.00 
  31   11:50   0.55   67.3    28   22.0   330    26.9   1013.2    0.00 
  31   12:00   0.56   67.6    29   17.8   332    23.3   1013.2    0.00 
  31   12:10   0.56   67.4    28   20.1   337    26.8   1012.9    0.00 
  31   12:20   0.56   67.8    27   20.5   330    27.2   1012.9    0.00 
  31   12:30   0.56   68.3    25   23.4   332    30.8   1012.9    0.00 
  31   12:40   0.56   68.6    25   23.3   331    28.9   1012.9    0.00 
  31   12:50   0.54   69.0    25   22.9   335    27.7   1012.9    0.00 
  31   13:00   0.54   69.6    24   21.9   325    29.3   1012.9    0.00 
  31   13:10   0.54   69.9    25   20.1   336    27.1   1012.5    0.00 
  31   13:20   0.53   70.2    24   19.0   335    23.9   1012.5    0.00 
  31   13:30   0.52   70.6    24   19.9   334    25.1   1012.5    0.00 
  31   13:40   0.51   70.8    25   19.1   334    23.8   1012.2    0.00 
  31   13:50   0.50   70.8    26   17.5   338    24.0   1012.2    0.00 
  31   14:00   0.48   71.1    24   18.7   334    24.3   1012.2    0.00 
  31   14:10   0.47   71.2    26   17.6   328    21.1   1012.2    0.00 
  31   14:20   0.45   71.2    27   16.1   331    20.2   1012.2    0.00 
  31   14:30   0.43   71.2    25   16.9   341    21.8   1012.2    0.00 
  31   14:40   0.41   71.0    27   16.5   340    21.3   1012.5    0.00 
  31   14:50   0.39   71.0    26   15.9   340    20.5   1012.5    0.00 
  31   15:00   0.37   71.3    25   15.5   339    20.2   1012.5    0.00 
  31   15:10   0.34   71.4    26   13.2   340    16.5   1012.5    0.00 
  31   15:20   0.32   71.5    26   15.7   341    20.7   1012.2    0.00 
  31   15:30   0.29   71.2    28   15.2   339    20.8   1012.5    0.00 
  31   15:40   0.27   71.3    28   13.6   340    16.8   1012.2    0.00 
  31   15:50   0.25   71.1    29   11.7   344    15.1   1012.2    0.00 
  31   16:00   0.22   71.1    28   10.3   340    14.8   1012.2    0.00 
  31   16:10   0.20   70.9    31    7.3   320     9.8   1012.2    0.00 
  31   16:20   0.17   70.4    34    5.9   327     8.4   1012.2    0.00 
  31   16:30   0.14   69.7    34    6.2   328     8.7   1012.2    0.00 
  31   16:40   0.12   69.3    34    5.8   331     7.2   1012.2    0.00 
  31   16:50   0.08   68.4    36    7.7   344    10.7   1012.2    0.00 
  31   17:00   0.06   68.0    36    8.6   347    11.2   1012.5    0.00 
  31   17:10   0.04   65.9    39    5.2   349     6.9   1012.5    0.00 
  31   17:20   0.01   65.0    39    5.3   359     6.6   1012.5    0.00 
  31   17:30   0.01   63.5    44    4.1    16     5.7   1012.5    0.00 
  31   17:40   0.00   61.5    57    4.3     5     4.6   1012.5    0.00 
  31   17:50   0.00   58.7    60    4.5     2     5.0   1012.9    0.00 
  31   18:00   0.00   57.5    60    4.0    12     4.7   1012.9    0.00 
  31   18:10   0.00   56.9    55    2.8    41     4.3   1012.9    0.00 
  31   18:20   0.00   54.0    62    3.6   120     5.6   1012.9    0.00 
  31   18:30   0.00   51.6    66    5.7   134     7.0   1012.9    0.00 
  31   18:40   0.00   49.9    68    5.5   174     7.8   1012.9    0.00 
  31   18:50   0.00   49.0    70    6.1   182     7.3   1012.9    0.00 
  31   19:00   0.00   49.0    74    5.1   182     6.4   1012.9    0.00 
  31   19:10   0.00   51.7    74    3.2   182     3.6   1013.2    0.00 
  31   19:20   0.00   54.4    62    1.9   203     3.0   1013.2    0.00 
  31   19:30   0.00   57.3    48    2.5   130     3.4   1013.2    0.00 
  31   19:40   0.00   59.9    43    3.0   104     3.5   1013.2    0.00 
  31   19:50   0.00   59.3    44    5.6    86     7.5   1013.2    0.00 
  31   20:00   0.00   52.0    62    6.5    86     7.3   1013.5    0.00 
  31   20:10   0.00   48.8    68    3.6   115     5.7   1013.5    0.00 
  31   20:20   0.00   48.7    71    0.8   190     3.6   1013.5    0.00 
  31   20:30   0.00   49.5    67    5.2    80     6.9   1013.9    0.00 
  31   20:40   0.00   48.9    70    5.4    76     6.4   1013.5    0.00 
  31   20:50   0.00   48.8    73    4.6    96     6.3   1013.5    0.00 
  31   21:00   0.00   48.2    74    2.8   127     3.7   1013.9    0.00 
  31   21:10   0.00   48.1    74    3.5   134     4.3   1013.9    0.00 
  31   21:20   0.00   47.7    73    3.5   129     4.2   1013.9    0.00 
  31   21:30   0.00   46.7    74    4.7   114     5.3   1013.9    0.00 
  31   21:40   0.00   44.3    78    4.6   109     5.3   1013.9    0.00 
  31   21:50   0.00   41.9    84    4.8   130     5.2   1014.2    0.00 
  31   22:00   0.00   41.2    84    3.9   129     4.2   1014.2    0.00 
  31   22:10   0.00   41.7    83    2.7   120     4.2   1014.2    0.00 
  31   22:20   0.00   42.1    85    1.5   108     2.0   1014.6    0.00 
  31   22:30   0.00   43.6    81    1.9    90     3.1   1014.6    0.00 
  31   22:40   0.00   44.0    79    3.3   109     4.0   1014.6    0.00 
  31   22:50   0.00   43.0    81    4.1   105     6.4   1014.6    0.00 
  31   23:00   0.00   41.0    85    5.1   119     6.5   1014.6    0.00 
  31   23:10   0.00   39.9    88    5.0   119     6.6   1014.9    0.00 
  31   23:20   0.00   40.2    89    5.2   114     6.2   1014.9    0.00 
  31   23:30   0.00   39.1    90    6.0   119     6.8   1014.9    0.00 
  31   23:40   0.00   39.0    90    6.6   115     7.4   1014.9    0.00 
  31   23:50   0.00   38.8    91    4.8   109     6.5   1014.9    0.00 
  32    0:00   0.00   39.9    92    3.4   100     6.0   1015.2    0.00 
  32    0:10   0.00   41.4    90    3.3    90     4.5   1015.2    0.00 
  32    0:20   0.00   40.7    89    4.8   104     5.8   1015.2    0.00 
  32    0:30   0.00   41.0    90    4.4   106     5.5   1015.2    0.00 
  32    0:40   0.00   41.0    90    3.7   115     5.0   1015.2    0.00 
  32    0:50   0.00   40.9    91    4.8   107     5.2   1015.2    0.00 
  32    1:00   0.00   40.8    91    4.9   107     5.5   1015.2    0.00 

Return to Jepson Prairie Reserve graphs page.


Western Regional Climate Center,wrcc@dri.edu